sensor_id;sensor_type;location;lat;lon;timestamp;P1;durP1;ratioP1;P2;durP2;ratioP2
14292;SDS011;62290;59.420;17.842;2022-08-30T00:01:55;0.85;;;0.10;;
14292;SDS011;62290;59.420;17.842;2022-08-30T00:04:23;0.20;;;0.10;;
14292;SDS011;62290;59.420;17.842;2022-08-30T00:06:51;0.25;;;0.10;;
14292;SDS011;62290;59.420;17.842;2022-08-30T00:09:19;0.10;;;0.10;;
14292;SDS011;62290;59.420;17.842;2022-08-30T00:11:47;0.30;;;0.20;;
14292;SDS011;62290;59.420;17.842;2022-08-30T00:14:18;2.90;;;0.20;;
14292;SDS011;62290;59.420;17.842;2022-08-30T00:16:46;1.10;;;0.13;;
14292;SDS011;62290;59.420;17.842;2022-08-30T00:19:16;1.08;;;0.20;;
14292;SDS011;62290;59.420;17.842;2022-08-30T00:21:44;0.38;;;0.20;;
14292;SDS011;62290;59.420;17.842;2022-08-30T00:24:12;0.10;;;0.10;;
14292;SDS011;62290;59.420;17.842;2022-08-30T00:26:40;0.20;;;0.20;;
14292;SDS011;62290;59.420;17.842;2022-08-30T00:29:08;1.27;;;0.40;;
14292;SDS011;62290;59.420;17.842;2022-08-30T00:31:37;0.45;;;0.20;;
14292;SDS011;62290;59.420;17.842;2022-08-30T00:34:05;1.17;;;0.30;;
14292;SDS011;62290;59.420;17.842;2022-08-30T00:36:33;0.40;;;0.20;;
14292;SDS011;62290;59.420;17.842;2022-08-30T00:39:02;2.10;;;0.20;;
14292;SDS011;62290;59.420;17.842;2022-08-30T00:41:31;0.43;;;0.10;;
14292;SDS011;62290;59.420;17.842;2022-08-30T00:43:59;0.17;;;0.17;;
14292;SDS011;62290;59.420;17.842;2022-08-30T00:46:28;0.15;;;0.15;;
14292;SDS011;62290;59.420;17.842;2022-08-30T00:48:59;0.30;;;0.10;;
14292;SDS011;62290;59.420;17.842;2022-08-30T00:51:31;0.30;;;0.10;;
14292;SDS011;62290;59.420;17.842;2022-08-30T00:54:00;0.10;;;0.10;;
14292;SDS011;62290;59.420;17.842;2022-08-30T00:56:29;0.32;;;0.10;;
14292;SDS011;62290;59.420;17.842;2022-08-30T00:58:59;0.60;;;0.30;;
14292;SDS011;62290;59.420;17.842;2022-08-30T01:01:29;0.28;;;0.20;;
14292;SDS011;62290;59.420;17.842;2022-08-30T01:04:01;0.25;;;0.10;;
14292;SDS011;62290;59.420;17.842;2022-08-30T01:06:30;0.20;;;0.20;;
14292;SDS011;62290;59.420;17.842;2022-08-30T01:09:00;0.28;;;0.20;;
14292;SDS011;62290;59.420;17.842;2022-08-30T01:11:31;0.10;;;0.10;;
14292;SDS011;62290;59.420;17.842;2022-08-30T01:14:01;1.27;;;0.28;;
14292;SDS011;62290;59.420;17.842;2022-08-30T01:16:29;0.10;;;0.10;;
14292;SDS011;62290;59.420;17.842;2022-08-30T01:19:02;0.40;;;0.20;;
14292;SDS011;62290;59.420;17.842;2022-08-30T01:21:33;0.40;;;0.20;;
14292;SDS011;62290;59.420;17.842;2022-08-30T01:24:08;0.20;;;0.20;;
14292;SDS011;62290;59.420;17.842;2022-08-30T01:26:37;0.10;;;0.10;;
14292;SDS011;62290;59.420;17.842;2022-08-30T01:29:06;0.43;;;0.15;;
14292;SDS011;62290;59.420;17.842;2022-08-30T01:31:36;1.35;;;0.30;;
14292;SDS011;62290;59.420;17.842;2022-08-30T01:34:05;0.15;;;0.10;;
14292;SDS011;62290;59.420;17.842;2022-08-30T01:36:34;0.35;;;0.20;;
14292;SDS011;62290;59.420;17.842;2022-08-30T01:39:12;2.45;;;0.20;;
14292;SDS011;62290;59.420;17.842;2022-08-30T01:41:42;0.05;;;0.03;;
14292;SDS011;62290;59.420;17.842;2022-08-30T01:44:11;0.52;;;0.10;;
14292;SDS011;62290;59.420;17.842;2022-08-30T01:46:41;0.10;;;0.10;;
14292;SDS011;62290;59.420;17.842;2022-08-30T01:49:15;0.25;;;0.17;;
14292;SDS011;62290;59.420;17.842;2022-08-30T01:51:53;0.28;;;0.22;;
14292;SDS011;62290;59.420;17.842;2022-08-30T01:54:28;0.20;;;0.20;;
14292;SDS011;62290;59.420;17.842;2022-08-30T01:57:04;0.40;;;0.20;;
14292;SDS011;62290;59.420;17.842;2022-08-30T01:59:33;0.25;;;0.10;;
14292;SDS011;62290;59.420;17.842;2022-08-30T02:02:01;0.15;;;0.10;;
14292;SDS011;62290;59.420;17.842;2022-08-30T02:04:29;0.15;;;0.15;;
14292;SDS011;62290;59.420;17.842;2022-08-30T02:06:58;0.40;;;0.30;;
14292;SDS011;62290;59.420;17.842;2022-08-30T02:09:26;0.03;;;0.03;;
14292;SDS011;62290;59.420;17.842;2022-08-30T02:11:56;0.25;;;0.17;;
14292;SDS011;62290;59.420;17.842;2022-08-30T02:14:24;0.10;;;0.10;;
14292;SDS011;62290;59.420;17.842;2022-08-30T02:16:52;0.20;;;0.20;;
14292;SDS011;62290;59.420;17.842;2022-08-30T02:19:21;0.30;;;0.20;;
14292;SDS011;62290;59.420;17.842;2022-08-30T02:21:49;0.55;;;0.20;;
14292;SDS011;62290;59.420;17.842;2022-08-30T02:24:18;0.10;;;0.10;;
14292;SDS011;62290;59.420;17.842;2022-08-30T02:26:46;0.40;;;0.20;;
14292;SDS011;62290;59.420;17.842;2022-08-30T02:29:15;0.10;;;0.10;;
14292;SDS011;62290;59.420;17.842;2022-08-30T02:31:43;0.10;;;0.10;;
14292;SDS011;62290;59.420;17.842;2022-08-30T02:34:11;0.10;;;0.10;;
14292;SDS011;62290;59.420;17.842;2022-08-30T02:36:39;0.40;;;0.20;;
14292;SDS011;62290;59.420;17.842;2022-08-30T02:39:08;0.20;;;0.20;;
14292;SDS011;62290;59.420;17.842;2022-08-30T02:41:37;0.20;;;0.20;;
14292;SDS011;62290;59.420;17.842;2022-08-30T02:44:06;0.10;;;0.10;;
14292;SDS011;62290;59.420;17.842;2022-08-30T02:46:37;0.10;;;0.10;;
14292;SDS011;62290;59.420;17.842;2022-08-30T02:49:06;0.20;;;0.20;;
14292;SDS011;62290;59.420;17.842;2022-08-30T02:51:55;0.13;;;0.13;;
14292;SDS011;62290;59.420;17.842;2022-08-30T02:54:23;0.68;;;0.17;;
14292;SDS011;62290;59.420;17.842;2022-08-30T02:56:51;0.10;;;0.10;;
14292;SDS011;62290;59.420;17.842;2022-08-30T02:59:19;0.22;;;0.22;;
14292;SDS011;62290;59.420;17.842;2022-08-30T03:01:49;0.45;;;0.20;;
14292;SDS011;62290;59.420;17.842;2022-08-30T03:04:17;0.52;;;0.35;;
14292;SDS011;62290;59.420;17.842;2022-08-30T03:06:52;0.30;;;0.10;;
14292;SDS011;62290;59.420;17.842;2022-08-30T03:09:20;0.10;;;0.10;;
14292;SDS011;62290;59.420;17.842;2022-08-30T03:11:48;0.17;;;0.17;;
14292;SDS011;62290;59.420;17.842;2022-08-30T03:14:16;0.15;;;0.10;;
14292;SDS011;62290;59.420;17.842;2022-08-30T03:16:44;0.47;;;0.20;;
14292;SDS011;62290;59.420;17.842;2022-08-30T03:19:13;0.22;;;0.20;;
14292;SDS011;62290;59.420;17.842;2022-08-30T03:21:42;0.10;;;0.10;;
14292;SDS011;62290;59.420;17.842;2022-08-30T03:24:10;0.25;;;0.22;;
14292;SDS011;62290;59.420;17.842;2022-08-30T03:26:38;0.40;;;0.30;;
14292;SDS011;62290;59.420;17.842;2022-08-30T03:29:11;0.88;;;0.20;;
14292;SDS011;62290;59.420;17.842;2022-08-30T03:31:39;0.68;;;0.28;;
14292;SDS011;62290;59.420;17.842;2022-08-30T03:34:20;0.65;;;0.10;;
14292;SDS011;62290;59.420;17.842;2022-08-30T03:36:49;0.15;;;0.10;;
14292;SDS011;62290;59.420;17.842;2022-08-30T03:39:18;0.17;;;0.15;;
14292;SDS011;62290;59.420;17.842;2022-08-30T03:41:47;0.90;;;0.20;;
14292;SDS011;62290;59.420;17.842;2022-08-30T03:44:17;0.10;;;0.10;;
14292;SDS011;62290;59.420;17.842;2022-08-30T03:46:45;0.17;;;0.17;;
14292;SDS011;62290;59.420;17.842;2022-08-30T03:49:14;0.10;;;0.10;;
14292;SDS011;62290;59.420;17.842;2022-08-30T03:51:44;0.80;;;0.20;;
14292;SDS011;62290;59.420;17.842;2022-08-30T03:54:12;0.30;;;0.20;;
14292;SDS011;62290;59.420;17.842;2022-08-30T03:56:40;0.43;;;0.20;;
14292;SDS011;62290;59.420;17.842;2022-08-30T03:59:09;0.95;;;0.20;;
14292;SDS011;62290;59.420;17.842;2022-08-30T04:01:37;0.20;;;0.10;;
14292;SDS011;62290;59.420;17.842;2022-08-30T04:04:05;1.60;;;0.15;;
14292;SDS011;62290;59.420;17.842;2022-08-30T04:06:33;0.20;;;0.20;;
14292;SDS011;62290;59.420;17.842;2022-08-30T04:09:02;0.85;;;0.20;;
14292;SDS011;62290;59.420;17.842;2022-08-30T04:11:30;0.10;;;0.10;;
14292;SDS011;62290;59.420;17.842;2022-08-30T04:13:59;0.10;;;0.10;;
14292;SDS011;62290;59.420;17.842;2022-08-30T04:16:27;0.13;;;0.10;;
14292;SDS011;62290;59.420;17.842;2022-08-30T04:18:55;0.35;;;0.20;;
14292;SDS011;62290;59.420;17.842;2022-08-30T04:21:23;1.02;;;0.22;;
14292;SDS011;62290;59.420;17.842;2022-08-30T04:23:51;0.15;;;0.15;;
14292;SDS011;62290;59.420;17.842;2022-08-30T04:26:20;1.25;;;0.25;;
14292;SDS011;62290;59.420;17.842;2022-08-30T04:28:54;0.20;;;0.20;;
14292;SDS011;62290;59.420;17.842;2022-08-30T04:31:22;0.20;;;0.20;;
14292;SDS011;62290;59.420;17.842;2022-08-30T04:33:52;1.10;;;0.32;;
14292;SDS011;62290;59.420;17.842;2022-08-30T04:36:20;0.63;;;0.20;;
14292;SDS011;62290;59.420;17.842;2022-08-30T04:38:47;0.10;;;0.10;;
14292;SDS011;62290;59.420;17.842;2022-08-30T04:41:16;0.10;;;0.10;;
14292;SDS011;62290;59.420;17.842;2022-08-30T04:43:47;0.75;;;0.40;;
14292;SDS011;62290;59.420;17.842;2022-08-30T04:46:16;0.20;;;0.10;;
14292;SDS011;62290;59.420;17.842;2022-08-30T04:48:45;0.15;;;0.15;;
14292;SDS011;62290;59.420;17.842;2022-08-30T04:51:14;0.13;;;0.13;;
14292;SDS011;62290;59.420;17.842;2022-08-30T04:53:43;0.20;;;0.10;;
14292;SDS011;62290;59.420;17.842;2022-08-30T04:56:13;0.20;;;0.20;;
14292;SDS011;62290;59.420;17.842;2022-08-30T04:58:42;0.10;;;0.10;;
14292;SDS011;62290;59.420;17.842;2022-08-30T05:01:13;0.40;;;0.10;;
14292;SDS011;62290;59.420;17.842;2022-08-30T05:03:45;0.30;;;0.10;;
14292;SDS011;62290;59.420;17.842;2022-08-30T05:06:14;0.40;;;0.22;;
14292;SDS011;62290;59.420;17.842;2022-08-30T05:08:43;0.47;;;0.30;;
14292;SDS011;62290;59.420;17.842;2022-08-30T05:11:12;0.20;;;0.20;;
14292;SDS011;62290;59.420;17.842;2022-08-30T05:13:41;0.20;;;0.20;;
14292;SDS011;62290;59.420;17.842;2022-08-30T05:16:09;0.13;;;0.10;;
14292;SDS011;62290;59.420;17.842;2022-08-30T05:18:44;0.28;;;0.28;;
14292;SDS011;62290;59.420;17.842;2022-08-30T05:21:14;0.20;;;0.20;;
14292;SDS011;62290;59.420;17.842;2022-08-30T05:23:43;0.30;;;0.20;;
14292;SDS011;62290;59.420;17.842;2022-08-30T05:26:14;0.10;;;0.10;;
14292;SDS011;62290;59.420;17.842;2022-08-30T05:28:43;0.20;;;0.20;;
14292;SDS011;62290;59.420;17.842;2022-08-30T05:31:15;0.28;;;0.20;;
14292;SDS011;62290;59.420;17.842;2022-08-30T05:33:46;0.95;;;0.20;;
14292;SDS011;62290;59.420;17.842;2022-08-30T05:36:16;1.27;;;0.20;;
14292;SDS011;62290;59.420;17.842;2022-08-30T05:38:45;0.20;;;0.20;;
14292;SDS011;62290;59.420;17.842;2022-08-30T05:41:13;0.10;;;0.10;;
14292;SDS011;62290;59.420;17.842;2022-08-30T05:43:41;0.28;;;0.20;;
14292;SDS011;62290;59.420;17.842;2022-08-30T05:46:11;2.58;;;0.20;;
14292;SDS011;62290;59.420;17.842;2022-08-30T05:48:45;0.10;;;0.10;;
14292;SDS011;62290;59.420;17.842;2022-08-30T05:51:15;0.38;;;0.20;;
14292;SDS011;62290;59.420;17.842;2022-08-30T05:53:44;0.05;;;0.05;;
14292;SDS011;62290;59.420;17.842;2022-08-30T05:56:14;0.17;;;0.17;;
14292;SDS011;62290;59.420;17.842;2022-08-30T05:58:43;0.63;;;0.20;;
14292;SDS011;62290;59.420;17.842;2022-08-30T06:01:18;0.95;;;0.20;;
14292;SDS011;62290;59.420;17.842;2022-08-30T06:03:49;1.75;;;0.20;;
14292;SDS011;62290;59.420;17.842;2022-08-30T06:06:18;0.20;;;0.20;;
14292;SDS011;62290;59.420;17.842;2022-08-30T06:08:47;0.47;;;0.30;;
14292;SDS011;62290;59.420;17.842;2022-08-30T06:11:17;0.20;;;0.20;;
14292;SDS011;62290;59.420;17.842;2022-08-30T06:13:47;0.60;;;0.30;;
14292;SDS011;62290;59.420;17.842;2022-08-30T06:16:16;2.20;;;0.40;;
14292;SDS011;62290;59.420;17.842;2022-08-30T06:18:46;1.85;;;0.45;;
14292;SDS011;62290;59.420;17.842;2022-08-30T06:21:16;1.20;;;0.40;;
14292;SDS011;62290;59.420;17.842;2022-08-30T06:23:45;3.22;;;0.40;;
14292;SDS011;62290;59.420;17.842;2022-08-30T06:26:13;0.60;;;0.32;;
14292;SDS011;62290;59.420;17.842;2022-08-30T06:28:41;1.13;;;0.32;;
14292;SDS011;62290;59.420;17.842;2022-08-30T06:31:10;0.40;;;0.40;;
14292;SDS011;62290;59.420;17.842;2022-08-30T06:33:39;0.45;;;0.30;;
14292;SDS011;62290;59.420;17.842;2022-08-30T06:36:08;1.33;;;0.35;;
14292;SDS011;62290;59.420;17.842;2022-08-30T06:38:40;1.55;;;0.45;;
14292;SDS011;62290;59.420;17.842;2022-08-30T06:41:08;1.30;;;0.47;;
14292;SDS011;62290;59.420;17.842;2022-08-30T06:43:38;2.92;;;0.50;;
14292;SDS011;62290;59.420;17.842;2022-08-30T06:46:11;0.88;;;0.40;;
14292;SDS011;62290;59.420;17.842;2022-08-30T06:48:41;0.75;;;0.40;;
14292;SDS011;62290;59.420;17.842;2022-08-30T06:51:13;0.52;;;0.40;;
14292;SDS011;62290;59.420;17.842;2022-08-30T06:53:46;1.70;;;0.63;;
14292;SDS011;62290;59.420;17.842;2022-08-30T06:56:15;0.70;;;0.30;;
14292;SDS011;62290;59.420;17.842;2022-08-30T06:58:45;3.42;;;0.50;;
14292;SDS011;62290;59.420;17.842;2022-08-30T07:01:14;2.95;;;0.60;;
14292;SDS011;62290;59.420;17.842;2022-08-30T07:03:44;0.98;;;0.50;;
14292;SDS011;62290;59.420;17.842;2022-08-30T07:06:13;2.08;;;0.55;;
14292;SDS011;62290;59.420;17.842;2022-08-30T07:08:44;1.58;;;0.50;;
14292;SDS011;62290;59.420;17.842;2022-08-30T07:11:25;2.53;;;0.50;;
14292;SDS011;62290;59.420;17.842;2022-08-30T07:13:54;0.65;;;0.40;;
14292;SDS011;62290;59.420;17.842;2022-08-30T07:16:22;1.85;;;0.38;;
14292;SDS011;62290;59.420;17.842;2022-08-30T07:18:51;1.48;;;0.50;;
14292;SDS011;62290;59.420;17.842;2022-08-30T07:21:21;3.30;;;0.40;;
14292;SDS011;62290;59.420;17.842;2022-08-30T07:23:52;0.63;;;0.40;;
14292;SDS011;62290;59.420;17.842;2022-08-30T07:26:23;2.97;;;0.43;;
14292;SDS011;62290;59.420;17.842;2022-08-30T07:28:54;0.88;;;0.47;;
14292;SDS011;62290;59.420;17.842;2022-08-30T07:31:22;2.85;;;0.43;;
14292;SDS011;62290;59.420;17.842;2022-08-30T07:33:51;1.65;;;0.40;;
14292;SDS011;62290;59.420;17.842;2022-08-30T07:36:19;3.92;;;0.85;;
14292;SDS011;62290;59.420;17.842;2022-08-30T07:38:48;1.58;;;0.40;;
14292;SDS011;62290;59.420;17.842;2022-08-30T07:41:19;1.25;;;0.90;;
14292;SDS011;62290;59.420;17.842;2022-08-30T07:43:50;1.25;;;0.50;;
14292;SDS011;62290;59.420;17.842;2022-08-30T07:46:18;3.30;;;0.40;;
14292;SDS011;62290;59.420;17.842;2022-08-30T07:48:47;2.83;;;0.60;;
14292;SDS011;62290;59.420;17.842;2022-08-30T07:51:16;2.13;;;0.65;;
14292;SDS011;62290;59.420;17.842;2022-08-30T07:53:46;2.88;;;0.30;;
14292;SDS011;62290;59.420;17.842;2022-08-30T07:56:15;1.75;;;0.60;;
14292;SDS011;62290;59.420;17.842;2022-08-30T07:58:44;1.33;;;0.63;;
14292;SDS011;62290;59.420;17.842;2022-08-30T08:01:13;2.85;;;0.50;;
14292;SDS011;62290;59.420;17.842;2022-08-30T08:03:42;7.40;;;0.65;;
14292;SDS011;62290;59.420;17.842;2022-08-30T08:06:11;1.40;;;0.35;;
14292;SDS011;62290;59.420;17.842;2022-08-30T08:08:41;0.88;;;0.43;;
14292;SDS011;62290;59.420;17.842;2022-08-30T08:11:11;2.42;;;0.55;;
14292;SDS011;62290;59.420;17.842;2022-08-30T08:13:42;2.97;;;0.60;;
14292;SDS011;62290;59.420;17.842;2022-08-30T08:16:21;2.10;;;0.40;;
14292;SDS011;62290;59.420;17.842;2022-08-30T08:18:51;1.77;;;0.60;;
14292;SDS011;62290;59.420;17.842;2022-08-30T08:21:20;1.23;;;0.43;;
14292;SDS011;62290;59.420;17.842;2022-08-30T08:23:49;0.70;;;0.30;;
14292;SDS011;62290;59.420;17.842;2022-08-30T08:26:18;0.65;;;0.32;;
14292;SDS011;62290;59.420;17.842;2022-08-30T08:28:47;2.50;;;0.50;;
14292;SDS011;62290;59.420;17.842;2022-08-30T08:31:15;1.80;;;0.30;;
14292;SDS011;62290;59.420;17.842;2022-08-30T08:33:46;1.35;;;0.52;;
14292;SDS011;62290;59.420;17.842;2022-08-30T08:36:14;4.85;;;0.70;;
14292;SDS011;62290;59.420;17.842;2022-08-30T08:38:44;2.72;;;0.45;;
14292;SDS011;62290;59.420;17.842;2022-08-30T08:41:15;0.95;;;0.32;;
14292;SDS011;62290;59.420;17.842;2022-08-30T08:43:57;2.60;;;0.30;;
14292;SDS011;62290;59.420;17.842;2022-08-30T08:46:27;1.10;;;0.50;;
14292;SDS011;62290;59.420;17.842;2022-08-30T08:49:03;1.25;;;0.45;;
14292;SDS011;62290;59.420;17.842;2022-08-30T08:51:34;3.53;;;0.60;;
14292;SDS011;62290;59.420;17.842;2022-08-30T08:54:23;0.65;;;0.40;;
14292;SDS011;62290;59.420;17.842;2022-08-30T08:56:57;0.82;;;0.40;;
14292;SDS011;62290;59.420;17.842;2022-08-30T08:59:26;3.95;;;0.55;;
14292;SDS011;62290;59.420;17.842;2022-08-30T09:01:54;0.73;;;0.30;;
14292;SDS011;62290;59.420;17.842;2022-08-30T09:04:30;0.40;;;0.32;;
14292;SDS011;62290;59.420;17.842;2022-08-30T09:07:02;0.68;;;0.40;;
14292;SDS011;62290;59.420;17.842;2022-08-30T09:09:36;0.88;;;0.40;;
14292;SDS011;62290;59.420;17.842;2022-08-30T09:12:06;1.35;;;0.57;;
14292;SDS011;62290;59.420;17.842;2022-08-30T09:14:36;4.30;;;0.50;;
14292;SDS011;62290;59.420;17.842;2022-08-30T09:17:12;2.47;;;0.50;;
14292;SDS011;62290;59.420;17.842;2022-08-30T09:19:43;2.42;;;0.30;;
14292;SDS011;62290;59.420;17.842;2022-08-30T09:22:20;2.72;;;0.52;;
14292;SDS011;62290;59.420;17.842;2022-08-30T09:24:53;1.63;;;0.40;;
14292;SDS011;62290;59.420;17.842;2022-08-30T09:27:27;5.68;;;0.30;;
14292;SDS011;62290;59.420;17.842;2022-08-30T09:30:02;2.42;;;0.40;;
14292;SDS011;62290;59.420;17.842;2022-08-30T09:32:40;2.70;;;0.50;;
14292;SDS011;62290;59.420;17.842;2022-08-30T09:35:12;1.48;;;0.40;;
14292;SDS011;62290;59.420;17.842;2022-08-30T09:37:46;0.73;;;0.40;;
14292;SDS011;62290;59.420;17.842;2022-08-30T09:40:21;1.45;;;0.50;;
14292;SDS011;62290;59.420;17.842;2022-08-30T09:42:59;3.22;;;0.35;;
14292;SDS011;62290;59.420;17.842;2022-08-30T09:45:32;1.92;;;0.40;;
14292;SDS011;62290;59.420;17.842;2022-08-30T09:48:19;3.13;;;0.30;;
14292;SDS011;62290;59.420;17.842;2022-08-30T09:50:55;2.45;;;0.30;;
14292;SDS011;62290;59.420;17.842;2022-08-30T09:53:34;0.55;;;0.40;;
14292;SDS011;62290;59.420;17.842;2022-08-30T09:56:28;0.73;;;0.43;;
14292;SDS011;62290;59.420;17.842;2022-08-30T09:59:07;4.13;;;0.50;;
14292;SDS011;62290;59.420;17.842;2022-08-30T10:01:49;2.33;;;0.40;;
14292;SDS011;62290;59.420;17.842;2022-08-30T10:04:26;0.30;;;0.30;;
14292;SDS011;62290;59.420;17.842;2022-08-30T10:07:05;1.00;;;0.52;;
14292;SDS011;62290;59.420;17.842;2022-08-30T10:09:41;3.97;;;0.40;;
14292;SDS011;62290;59.420;17.842;2022-08-30T10:12:22;0.57;;;0.40;;
14292;SDS011;62290;59.420;17.842;2022-08-30T10:14:58;3.92;;;0.50;;
14292;SDS011;62290;59.420;17.842;2022-08-30T10:17:35;1.50;;;0.80;;
14292;SDS011;62290;59.420;17.842;2022-08-30T10:20:14;2.28;;;0.55;;
14292;SDS011;62290;59.420;17.842;2022-08-30T10:22:48;1.38;;;0.50;;
14292;SDS011;62290;59.420;17.842;2022-08-30T10:25:25;4.05;;;0.98;;
14292;SDS011;62290;59.420;17.842;2022-08-30T10:27:59;0.60;;;0.40;;
14292;SDS011;62290;59.420;17.842;2022-08-30T10:30:35;1.13;;;0.40;;
14292;SDS011;62290;59.420;17.842;2022-08-30T10:33:07;0.93;;;0.65;;
14292;SDS011;62290;59.420;17.842;2022-08-30T10:35:43;1.75;;;0.50;;
14292;SDS011;62290;59.420;17.842;2022-08-30T10:38:17;0.82;;;0.30;;
14292;SDS011;62290;59.420;17.842;2022-08-30T10:40:49;1.63;;;0.52;;
14292;SDS011;62290;59.420;17.842;2022-08-30T10:43:45;0.70;;;0.50;;
14292;SDS011;62290;59.420;17.842;2022-08-30T10:46:24;0.68;;;0.35;;
14292;SDS011;62290;59.420;17.842;2022-08-30T10:48:58;2.40;;;0.65;;
14292;SDS011;62290;59.420;17.842;2022-08-30T10:51:30;2.10;;;0.40;;
14292;SDS011;62290;59.420;17.842;2022-08-30T10:54:09;0.90;;;0.50;;
14292;SDS011;62290;59.420;17.842;2022-08-30T10:56:44;0.75;;;0.50;;
14292;SDS011;62290;59.420;17.842;2022-08-30T10:59:17;1.10;;;0.50;;
14292;SDS011;62290;59.420;17.842;2022-08-30T11:01:57;0.50;;;0.30;;
14292;SDS011;62290;59.420;17.842;2022-08-30T11:04:50;0.85;;;0.40;;
14292;SDS011;62290;59.420;17.842;2022-08-30T11:07:43;3.78;;;0.70;;
14292;SDS011;62290;59.420;17.842;2022-08-30T11:10:24;0.98;;;0.43;;
14292;SDS011;62290;59.420;17.842;2022-08-30T11:13:02;1.17;;;0.28;;
14292;SDS011;62290;59.420;17.842;2022-08-30T11:15:36;1.35;;;0.30;;
14292;SDS011;62290;59.420;17.842;2022-08-30T11:18:21;1.63;;;0.25;;
14292;SDS011;62290;59.420;17.842;2022-08-30T11:20:51;1.77;;;0.40;;
14292;SDS011;62290;59.420;17.842;2022-08-30T11:23:26;0.47;;;0.30;;
14292;SDS011;62290;59.420;17.842;2022-08-30T11:26:01;1.42;;;0.80;;
14292;SDS011;62290;59.420;17.842;2022-08-30T11:31:34;1.05;;;0.55;;
14292;SDS011;62290;59.420;17.842;2022-08-30T11:34:06;2.33;;;0.75;;
14292;SDS011;62290;59.420;17.842;2022-08-30T11:42:32;0.70;;;0.35;;
14292;SDS011;62290;59.420;17.842;2022-08-30T11:54:35;2.17;;;0.45;;
14292;SDS011;62290;59.420;17.842;2022-08-30T11:57:12;5.43;;;0.60;;
14292;SDS011;62290;59.420;17.842;2022-08-30T11:59:52;0.47;;;0.30;;
14292;SDS011;62290;59.420;17.842;2022-08-30T12:02:47;0.90;;;0.50;;
14292;SDS011;62290;59.420;17.842;2022-08-30T12:17:23;1.02;;;0.35;;
14292;SDS011;62290;59.420;17.842;2022-08-30T12:20:23;3.70;;;0.40;;
14292;SDS011;62290;59.420;17.842;2022-08-30T12:22:55;1.90;;;0.50;;
14292;SDS011;62290;59.420;17.842;2022-08-30T12:25:26;3.00;;;0.50;;
14292;SDS011;62290;59.420;17.842;2022-08-30T12:28:09;3.17;;;0.50;;
14292;SDS011;62290;59.420;17.842;2022-08-30T12:30:40;0.45;;;0.30;;
14292;SDS011;62290;59.420;17.842;2022-08-30T12:33:21;0.77;;;0.30;;
14292;SDS011;62290;59.420;17.842;2022-08-30T12:35:55;2.92;;;0.65;;
14292;SDS011;62290;59.420;17.842;2022-08-30T12:38:25;1.42;;;0.40;;
14292;SDS011;62290;59.420;17.842;2022-08-30T12:40:56;0.40;;;0.40;;
14292;SDS011;62290;59.420;17.842;2022-08-30T12:43:28;0.75;;;0.40;;
14292;SDS011;62290;59.420;17.842;2022-08-30T12:46:07;1.70;;;0.65;;
14292;SDS011;62290;59.420;17.842;2022-08-30T12:48:42;0.70;;;0.30;;
14292;SDS011;62290;59.420;17.842;2022-08-30T12:51:24;0.82;;;0.35;;
14292;SDS011;62290;59.420;17.842;2022-08-30T12:54:01;1.20;;;0.32;;
14292;SDS011;62290;59.420;17.842;2022-08-30T12:56:45;0.93;;;0.47;;
14292;SDS011;62290;59.420;17.842;2022-08-30T13:02:27;1.80;;;0.47;;
14292;SDS011;62290;59.420;17.842;2022-08-30T13:08:14;0.73;;;0.40;;
14292;SDS011;62290;59.420;17.842;2022-08-30T13:10:53;2.40;;;0.40;;
14292;SDS011;62290;59.420;17.842;2022-08-30T13:13:25;0.82;;;0.50;;
14292;SDS011;62290;59.420;17.842;2022-08-30T13:16:05;0.82;;;0.30;;
14292;SDS011;62290;59.420;17.842;2022-08-30T13:18:52;1.00;;;0.40;;
14292;SDS011;62290;59.420;17.842;2022-08-30T13:21:24;1.27;;;0.50;;
14292;SDS011;62290;59.420;17.842;2022-08-30T13:23:56;0.55;;;0.40;;
14292;SDS011;62290;59.420;17.842;2022-08-30T13:26:27;0.55;;;0.17;;
14292;SDS011;62290;59.420;17.842;2022-08-30T13:28:59;1.02;;;0.50;;
14292;SDS011;62290;59.420;17.842;2022-08-30T13:31:29;1.60;;;0.30;;
14292;SDS011;62290;59.420;17.842;2022-08-30T13:33:58;0.47;;;0.28;;
14292;SDS011;62290;59.420;17.842;2022-08-30T13:36:30;0.75;;;0.20;;
14292;SDS011;62290;59.420;17.842;2022-08-30T13:39:00;2.25;;;0.40;;
14292;SDS011;62290;59.420;17.842;2022-08-30T13:41:31;2.85;;;0.35;;
14292;SDS011;62290;59.420;17.842;2022-08-30T13:44:00;3.70;;;0.40;;
14292;SDS011;62290;59.420;17.842;2022-08-30T13:46:39;1.55;;;0.50;;
14292;SDS011;62290;59.420;17.842;2022-08-30T13:49:11;2.42;;;0.45;;
14292;SDS011;62290;59.420;17.842;2022-08-30T13:52:06;0.75;;;0.32;;
14292;SDS011;62290;59.420;17.842;2022-08-30T13:54:46;1.40;;;0.50;;
14292;SDS011;62290;59.420;17.842;2022-08-30T13:57:15;1.73;;;0.47;;
14292;SDS011;62290;59.420;17.842;2022-08-30T14:00:07;0.35;;;0.30;;
14292;SDS011;62290;59.420;17.842;2022-08-30T14:02:41;0.65;;;0.32;;
14292;SDS011;62290;59.420;17.842;2022-08-30T14:05:17;2.80;;;0.70;;
14292;SDS011;62290;59.420;17.842;2022-08-30T14:08:06;2.55;;;0.60;;
14292;SDS011;62290;59.420;17.842;2022-08-30T14:10:55;1.25;;;0.47;;
14292;SDS011;62290;59.420;17.842;2022-08-30T14:13:24;0.82;;;0.40;;
14292;SDS011;62290;59.420;17.842;2022-08-30T14:15:55;1.20;;;0.43;;
14292;SDS011;62290;59.420;17.842;2022-08-30T14:18:46;0.52;;;0.35;;
14292;SDS011;62290;59.420;17.842;2022-08-30T14:21:14;0.63;;;0.40;;
14292;SDS011;62290;59.420;17.842;2022-08-30T14:23:48;1.17;;;0.50;;
14292;SDS011;62290;59.420;17.842;2022-08-30T14:26:17;0.60;;;0.20;;
14292;SDS011;62290;59.420;17.842;2022-08-30T14:28:47;0.52;;;0.30;;
14292;SDS011;62290;59.420;17.842;2022-08-30T14:31:17;0.82;;;0.30;;
14292;SDS011;62290;59.420;17.842;2022-08-30T14:33:46;1.85;;;0.35;;
14292;SDS011;62290;59.420;17.842;2022-08-30T14:36:14;0.40;;;0.30;;
14292;SDS011;62290;59.420;17.842;2022-08-30T14:38:43;1.70;;;0.50;;
14292;SDS011;62290;59.420;17.842;2022-08-30T14:41:12;0.77;;;0.30;;
14292;SDS011;62290;59.420;17.842;2022-08-30T14:43:40;3.67;;;0.73;;
14292;SDS011;62290;59.420;17.842;2022-08-30T14:46:09;0.60;;;0.40;;
14292;SDS011;62290;59.420;17.842;2022-08-30T14:48:37;0.50;;;0.40;;
14292;SDS011;62290;59.420;17.842;2022-08-30T14:51:11;0.65;;;0.60;;
14292;SDS011;62290;59.420;17.842;2022-08-30T14:53:40;2.03;;;0.50;;
14292;SDS011;62290;59.420;17.842;2022-08-30T14:56:09;0.82;;;0.50;;
14292;SDS011;62290;59.420;17.842;2022-08-30T14:58:40;2.50;;;0.50;;
14292;SDS011;62290;59.420;17.842;2022-08-30T15:01:10;0.50;;;0.30;;
14292;SDS011;62290;59.420;17.842;2022-08-30T15:03:39;0.60;;;0.35;;
14292;SDS011;62290;59.420;17.842;2022-08-30T15:06:07;2.53;;;0.60;;
14292;SDS011;62290;59.420;17.842;2022-08-30T15:08:36;1.42;;;0.63;;
14292;SDS011;62290;59.420;17.842;2022-08-30T15:11:06;2.45;;;0.50;;
14292;SDS011;62290;59.420;17.842;2022-08-30T15:13:35;5.55;;;0.50;;
14292;SDS011;62290;59.420;17.842;2022-08-30T15:16:09;0.73;;;0.40;;
14292;SDS011;62290;59.420;17.842;2022-08-30T15:18:39;1.13;;;0.30;;
14292;SDS011;62290;59.420;17.842;2022-08-30T15:21:07;0.77;;;0.30;;
14292;SDS011;62290;59.420;17.842;2022-08-30T15:23:36;0.57;;;0.32;;
14292;SDS011;62290;59.420;17.842;2022-08-30T15:26:04;1.45;;;0.43;;
14292;SDS011;62290;59.420;17.842;2022-08-30T15:28:35;1.00;;;0.40;;
14292;SDS011;62290;59.420;17.842;2022-08-30T15:31:03;1.17;;;0.50;;
14292;SDS011;62290;59.420;17.842;2022-08-30T15:33:36;1.33;;;0.35;;
14292;SDS011;62290;59.420;17.842;2022-08-30T15:36:10;1.27;;;0.50;;
14292;SDS011;62290;59.420;17.842;2022-08-30T15:38:38;1.85;;;0.47;;